CMB813 Details

Departure: Joint Base McGuire Dix Lakehurst (KWRI)
Arrival: RAF Mildenhall (EGUN)
Notes: USTRANSCOM CONTRACT FLIGHT


Current Weather Information
KWRI 200856Z AUTO 00000KT 10SM CLR M03/M04 A3037 RMK AO2 SLP285 T10301037 57005
EGUN 200856Z 23007KT 9999 SCT160 10/10 A3045 RMK AO2A SLPNO WND DATA ESTMD T00950095 52013 $